createdAt,value
2023-09-06T00:01:09.397Z,80.40
2023-09-06T00:03:39.423Z,80.50
2023-09-06T00:06:09.428Z,80.60
2023-09-06T00:08:38.465Z,80.70
2023-09-06T00:11:07.926Z,80.70
2023-09-06T00:13:37.842Z,80.60
2023-09-06T00:16:08.898Z,80.60
2023-09-06T00:18:39.045Z,80.50
2023-09-06T00:21:08.190Z,80.60
2023-09-06T00:23:37.212Z,80.60
2023-09-06T00:26:06.319Z,80.60
2023-09-06T00:28:35.492Z,80.50
2023-09-06T00:31:04.693Z,80.50
2023-09-06T00:33:36.985Z,80.40
2023-09-06T00:36:06.687Z,80.40
2023-09-06T00:38:35.733Z,80.50
2023-09-06T00:41:06.948Z,80.30
2023-09-06T00:43:38.102Z,80.40
2023-09-06T00:46:09.704Z,80.40
2023-09-06T00:48:40.389Z,80.50
2023-09-06T00:51:09.823Z,80.60
2023-09-06T00:53:38.919Z,80.70
2023-09-06T00:56:10.205Z,80.70
2023-09-06T00:58:39.588Z,81.60
2023-09-06T01:01:08.976Z,80.70
2023-09-06T01:03:42.744Z,80.60
2023-09-06T01:06:17.489Z,80.60
2023-09-06T01:08:51.890Z,80.70
2023-09-06T01:11:22.946Z,80.70
2023-09-06T01:13:53.965Z,80.80
2023-09-06T01:16:27.832Z,80.80
2023-09-06T01:18:59.625Z,80.90
2023-09-06T01:21:36.267Z,81.00
2023-09-06T01:24:08.016Z,81.00
2023-09-06T01:26:37.687Z,81.10
2023-09-06T01:29:07.022Z,81.10
2023-09-06T01:31:36.842Z,81.10
2023-09-06T01:34:06.170Z,81.10
2023-09-06T01:36:35.271Z,81.10
2023-09-06T01:39:07.329Z,81.00
2023-09-06T01:41:37.761Z,81.00
2023-09-06T01:44:07.216Z,81.00
2023-09-06T01:46:36.362Z,81.00
2023-09-06T01:49:06.119Z,81.10
2023-09-06T01:51:35.299Z,81.10
2023-09-06T01:54:05.561Z,81.20
2023-09-06T01:56:34.626Z,81.30
2023-09-06T01:59:05.545Z,81.40
2023-09-06T02:01:34.657Z,81.40
2023-09-06T02:04:07.127Z,81.40
2023-09-06T02:06:36.347Z,81.50
2023-09-06T02:09:06.080Z,81.50
2023-09-06T02:11:35.427Z,81.40
2023-09-06T02:14:05.984Z,81.40
2023-09-06T02:16:35.652Z,81.40
2023-09-06T02:19:07.113Z,81.40
2023-09-06T02:21:37.283Z,81.30
2023-09-06T02:24:09.830Z,81.40
2023-09-06T02:26:39.298Z,81.50
2023-09-06T02:29:09.697Z,81.50
2023-09-06T02:31:39.501Z,81.60
2023-09-06T02:34:09.841Z,81.70
2023-09-06T02:36:38.944Z,81.70
2023-09-06T02:39:08.665Z,81.60
2023-09-06T02:41:37.807Z,81.60
2023-09-06T02:44:07.692Z,82.50
2023-09-06T02:46:38.159Z,81.60
2023-09-06T02:49:13.598Z,81.60
2023-09-06T02:51:44.908Z,81.60
2023-09-06T02:54:14.247Z,81.70
2023-09-06T02:56:43.270Z,81.80
2023-09-06T02:59:13.730Z,81.80
2023-09-06T03:01:46.299Z,81.80
2023-09-06T03:04:16.833Z,81.80
2023-09-06T03:06:46.012Z,81.70
2023-09-06T03:09:16.308Z,81.60
2023-09-06T03:11:45.745Z,81.70
2023-09-06T03:14:18.858Z,81.80
2023-09-06T03:16:54.677Z,81.90
2023-09-06T03:19:23.848Z,82.00
2023-09-06T03:21:56.837Z,82.00
2023-09-06T03:24:25.940Z,82.00
2023-09-06T03:26:55.350Z,81.90
2023-09-06T03:29:25.933Z,81.90
2023-09-06T03:31:56.523Z,82.80
2023-09-06T03:34:26.209Z,81.90
2023-09-06T03:36:56.494Z,81.90
2023-09-06T03:39:30.778Z,81.90
2023-09-06T03:42:01.949Z,82.00
2023-09-06T03:44:32.927Z,82.00
2023-09-06T03:47:06.313Z,82.00
2023-09-06T03:49:37.111Z,81.90
2023-09-06T03:52:06.755Z,82.00
2023-09-06T03:54:36.502Z,82.10
2023-09-06T03:57:06.704Z,82.20
2023-09-06T03:59:37.456Z,82.20
2023-09-06T04:02:14.807Z,82.10
2023-09-06T04:04:45.514Z,83.00
2023-09-06T04:07:15.448Z,82.10
2023-09-06T04:09:44.522Z,82.00
2023-09-06T04:12:13.666Z,82.00
2023-09-06T04:14:42.857Z,82.00
2023-09-06T04:17:13.535Z,82.10
2023-09-06T04:19:42.711Z,82.10
2023-09-06T04:22:14.307Z,82.20
2023-09-06T04:24:43.713Z,82.20
2023-09-06T04:27:13.339Z,82.10
2023-09-06T04:29:43.058Z,82.20
2023-09-06T04:32:13.528Z,82.10
2023-09-06T04:34:42.685Z,82.20
2023-09-06T04:37:14.369Z,82.20
2023-09-06T04:39:44.972Z,82.20
2023-09-06T04:42:15.516Z,82.20
2023-09-06T04:44:45.864Z,82.20
2023-09-06T04:47:17.041Z,82.20
2023-09-06T04:49:47.097Z,82.30
2023-09-06T04:52:17.277Z,82.30
2023-09-06T04:54:46.421Z,82.40
2023-09-06T04:57:17.819Z,82.30
2023-09-06T04:59:48.289Z,82.30
2023-09-06T05:02:18.850Z,82.30
2023-09-06T05:04:48.200Z,82.40
2023-09-06T05:07:17.273Z,82.50
2023-09-06T05:09:46.925Z,82.50
2023-09-06T05:12:16.506Z,82.50
2023-09-06T05:14:46.018Z,82.50
2023-09-06T05:17:15.830Z,82.50
2023-09-06T05:19:46.282Z,82.50
2023-09-06T05:22:15.485Z,82.50
2023-09-06T05:24:44.605Z,82.50
2023-09-06T05:27:14.470Z,82.50
2023-09-06T05:29:43.618Z,82.50
2023-09-06T05:32:15.285Z,82.50
2023-09-06T05:34:46.985Z,82.60
2023-09-06T05:37:16.118Z,82.60
2023-09-06T05:39:46.513Z,82.70
2023-09-06T05:42:15.608Z,82.70
2023-09-06T05:44:45.873Z,82.60
2023-09-06T05:47:16.075Z,82.70
2023-09-06T05:49:48.220Z,82.70
2023-09-06T05:52:18.054Z,82.70
2023-09-06T05:54:49.972Z,82.80
2023-09-06T05:57:19.767Z,82.90
2023-09-06T05:59:49.354Z,82.90
2023-09-06T06:02:18.774Z,82.90
2023-09-06T06:04:49.260Z,82.90
2023-09-06T06:07:18.367Z,82.80
2023-09-06T06:09:47.411Z,82.80
2023-09-06T06:12:23.332Z,82.70
2023-09-06T06:14:53.027Z,82.70
2023-09-06T06:17:22.070Z,82.70
2023-09-06T06:19:52.540Z,82.80
2023-09-06T06:22:21.643Z,82.70
2023-09-06T06:24:51.728Z,82.60
2023-09-06T06:27:21.127Z,82.50
2023-09-06T06:29:50.418Z,82.50
2023-09-06T06:32:20.951Z,82.40
2023-09-06T06:34:52.156Z,82.40
2023-09-06T06:37:23.321Z,82.40
2023-09-06T06:39:52.399Z,82.30
2023-09-06T06:42:21.491Z,82.30
2023-09-06T06:44:57.758Z,82.40
2023-09-06T06:47:27.754Z,82.40
2023-09-06T06:49:57.246Z,82.50
2023-09-06T06:52:32.157Z,82.60
2023-09-06T06:55:01.320Z,82.80
2023-09-06T06:57:30.306Z,82.70
2023-09-06T06:59:59.587Z,82.70
2023-09-06T07:02:29.019Z,82.70
2023-09-06T07:04:59.157Z,82.60
2023-09-06T07:07:29.880Z,82.60
2023-09-06T07:09:58.911Z,82.50
2023-09-06T07:12:27.932Z,82.40
2023-09-06T07:14:57.023Z,82.30
2023-09-06T07:17:26.301Z,82.20
2023-09-06T07:19:55.571Z,82.20
2023-09-06T07:22:24.715Z,82.20
2023-09-06T07:24:55.140Z,82.20
2023-09-06T07:27:24.318Z,82.20
2023-09-06T07:29:53.315Z,82.30
2023-09-06T07:32:22.330Z,82.30
2023-09-06T07:34:52.362Z,82.20
2023-09-06T07:37:21.516Z,82.10
2023-09-06T07:39:50.506Z,82.00
2023-09-06T07:42:20.924Z,81.80
2023-09-06T07:44:49.971Z,81.70
2023-09-06T07:47:19.211Z,81.60
2023-09-06T07:49:48.436Z,81.60
2023-09-06T07:52:17.539Z,81.50
2023-09-06T07:54:46.574Z,81.50
2023-09-06T07:57:15.596Z,81.40
2023-09-06T07:59:46.063Z,81.20
2023-09-06T08:02:15.406Z,81.10
2023-09-06T08:04:45.896Z,81.10
2023-09-06T08:07:17.146Z,81.00
2023-09-06T08:09:46.192Z,80.90
2023-09-06T08:12:15.268Z,80.80
2023-09-06T08:14:45.743Z,80.90
2023-09-06T08:17:15.155Z,81.00
2023-09-06T08:19:44.194Z,81.20
2023-09-06T08:22:13.240Z,81.10
2023-09-06T08:24:42.969Z,81.20
2023-09-06T08:27:12.460Z,81.40
2023-09-06T08:29:41.575Z,81.30
2023-09-06T08:32:12.092Z,81.20
2023-09-06T08:34:41.197Z,81.20
2023-09-06T08:37:10.185Z,81.40
2023-09-06T08:39:39.227Z,81.40
2023-09-06T08:42:08.521Z,81.30
2023-09-06T08:44:38.910Z,81.30
2023-09-06T08:47:13.436Z,81.20
2023-09-06T08:49:43.255Z,81.20
2023-09-06T08:52:14.318Z,81.10
2023-09-06T08:54:46.326Z,81.10
2023-09-06T08:57:15.682Z,81.10
2023-09-06T08:59:45.114Z,81.00
2023-09-06T09:02:16.726Z,81.00
2023-09-06T09:04:45.832Z,81.00
2023-09-06T09:07:15.771Z,81.00
2023-09-06T09:10:02.552Z,81.00
2023-09-06T09:12:32.982Z,81.00
2023-09-06T09:15:17.547Z,81.00
2023-09-06T09:18:00.931Z,80.90
2023-09-06T09:20:33.634Z,80.70
2023-09-06T09:23:04.146Z,80.60
2023-09-06T09:25:36.683Z,80.50
2023-09-06T09:28:06.331Z,80.40
2023-09-06T09:30:35.636Z,80.40
2023-09-06T09:33:06.572Z,80.20
2023-09-06T09:35:36.699Z,80.10
2023-09-06T09:38:07.714Z,80.00
2023-09-06T09:43:10.068Z,80.00
2023-09-06T09:45:45.163Z,80.00
2023-09-06T09:48:17.535Z,80.20
2023-09-06T09:50:48.393Z,80.10
2023-09-06T09:53:24.379Z,80.00
2023-09-06T09:55:56.063Z,80.10
2023-09-06T09:58:29.898Z,80.10
2023-09-06T10:01:01.947Z,80.20
2023-09-06T10:03:36.378Z,80.10
2023-09-06T10:06:06.538Z,80.10
2023-09-06T10:08:36.850Z,80.20
2023-09-06T10:11:09.077Z,80.20
2023-09-06T10:13:39.274Z,80.30
2023-09-06T10:16:14.052Z,80.40
2023-09-06T10:18:45.087Z,80.60
2023-09-06T10:21:15.965Z,80.80
2023-09-06T10:23:45.807Z,81.10
2023-09-06T10:26:25.830Z,81.40
2023-09-06T10:28:58.785Z,81.70
2023-09-06T10:31:37.714Z,81.80
2023-09-06T10:34:08.996Z,81.70
2023-09-06T10:36:52.679Z,81.70
2023-09-06T10:39:23.668Z,81.60
2023-09-06T10:42:20.836Z,81.20
2023-09-06T10:45:14.280Z,81.20
2023-09-06T10:47:43.891Z,81.00
2023-09-06T10:50:23.935Z,80.80
2023-09-06T10:52:55.030Z,80.60
2023-09-06T10:55:26.145Z,80.40
2023-09-06T10:58:05.197Z,80.50
2023-09-06T11:00:35.597Z,80.60
2023-09-06T11:03:22.063Z,80.40
2023-09-06T11:05:57.995Z,80.50
2023-09-06T11:08:32.850Z,80.40
2023-09-06T11:11:07.489Z,80.50
2023-09-06T11:13:37.222Z,80.60
2023-09-06T11:16:07.655Z,80.60
2023-09-06T11:18:46.199Z,80.70
2023-09-06T11:21:20.719Z,80.80
2023-09-06T11:23:50.972Z,81.00
2023-09-06T11:26:20.352Z,81.20
2023-09-06T11:28:50.283Z,81.10
2023-09-06T11:31:25.147Z,81.10
2023-09-06T11:33:57.383Z,81.00
2023-09-06T11:36:33.299Z,80.70
2023-09-06T11:39:12.235Z,80.50
2023-09-06T11:41:42.789Z,80.20
2023-09-06T11:44:14.419Z,80.00
2023-09-06T11:46:45.191Z,79.70
2023-09-06T11:49:16.249Z,79.50
2023-09-06T11:51:49.053Z,79.20
2023-09-06T11:54:19.065Z,79.00
2023-09-06T11:56:49.479Z,78.80
2023-09-06T11:59:21.560Z,78.70
2023-09-06T12:01:54.210Z,78.70
2023-09-06T12:04:23.905Z,78.70
2023-09-06T12:06:57.419Z,78.80
2023-09-06T12:09:29.484Z,78.80
2023-09-06T12:12:01.122Z,79.00
2023-09-06T12:14:32.710Z,78.80
2023-09-06T12:17:04.414Z,78.60
2023-09-06T12:19:36.124Z,78.50
2023-09-06T12:22:08.873Z,78.50
2023-09-06T12:24:40.037Z,78.50
2023-09-06T12:27:10.421Z,78.50
2023-09-06T12:29:39.995Z,78.30
2023-09-06T12:32:09.294Z,78.30
2023-09-06T12:34:38.335Z,78.30
2023-09-06T12:37:08.942Z,78.30
2023-09-06T12:39:37.999Z,78.30
2023-09-06T12:42:08.616Z,78.30
2023-09-06T12:44:37.799Z,78.60
2023-09-06T12:47:07.670Z,78.70
2023-09-06T12:49:36.694Z,78.80
2023-09-06T12:52:06.698Z,78.90
2023-09-06T12:54:37.703Z,79.00
2023-09-06T12:57:07.082Z,79.10
2023-09-06T12:59:36.240Z,79.20
2023-09-06T13:02:06.144Z,79.20
2023-09-06T13:04:35.531Z,79.20
2023-09-06T13:07:05.038Z,79.20
2023-09-06T13:09:34.112Z,79.30
2023-09-06T13:12:04.707Z,79.20
2023-09-06T13:14:33.784Z,79.20
2023-09-06T13:17:03.049Z,79.30
2023-09-06T13:19:32.190Z,79.20
2023-09-06T13:22:01.273Z,79.30
2023-09-06T13:24:34.439Z,79.20
2023-09-06T13:27:07.340Z,79.30
2023-09-06T13:29:37.367Z,79.20
2023-09-06T13:32:08.258Z,79.20
2023-09-06T13:34:38.304Z,79.20
2023-09-06T13:37:07.345Z,79.20
2023-09-06T13:39:36.407Z,79.10
2023-09-06T13:42:07.223Z,79.20
2023-09-06T13:44:36.726Z,79.20
2023-09-06T13:47:06.426Z,79.30
2023-09-06T13:49:36.073Z,80.10
2023-09-06T13:52:06.047Z,79.50
2023-09-06T13:54:35.083Z,79.60
2023-09-06T13:57:05.481Z,79.60
2023-09-06T13:59:36.195Z,79.50
2023-09-06T14:02:05.922Z,79.40
2023-09-06T14:04:37.590Z,79.40
2023-09-06T14:07:07.733Z,79.20
2023-09-06T14:09:36.751Z,80.10
2023-09-06T14:12:06.286Z,79.10
2023-09-06T14:14:36.725Z,79.10
2023-09-06T14:17:06.189Z,78.90
2023-09-06T14:19:36.428Z,78.80
2023-09-06T14:22:10.826Z,78.80
2023-09-06T14:24:40.369Z,78.70
2023-09-06T14:27:09.526Z,78.60
2023-09-06T14:29:40.028Z,78.70
2023-09-06T14:32:09.216Z,78.70
2023-09-06T14:34:38.374Z,78.70
2023-09-06T14:37:07.705Z,78.60
2023-09-06T14:39:36.868Z,78.60
2023-09-06T14:42:08.526Z,78.60
2023-09-06T14:44:39.243Z,78.70
2023-09-06T14:47:08.449Z,78.70
2023-09-06T14:49:38.350Z,78.60
2023-09-06T14:52:08.214Z,78.60
2023-09-06T14:54:37.273Z,78.60
2023-09-06T14:57:08.184Z,78.60
2023-09-06T14:59:39.870Z,78.50
2023-09-06T15:02:10.649Z,78.40
2023-09-06T15:04:40.033Z,78.40
2023-09-06T15:07:09.258Z,78.30
2023-09-06T15:09:38.650Z,78.30
2023-09-06T15:12:08.632Z,78.20
2023-09-06T15:14:40.678Z,78.20
2023-09-06T15:17:11.120Z,78.20
2023-09-06T15:19:41.080Z,78.20
2023-09-06T15:22:10.127Z,78.20
2023-09-06T15:24:39.177Z,78.10
2023-09-06T15:27:08.393Z,78.00
2023-09-06T15:29:43.806Z,78.00
2023-09-06T15:32:14.293Z,78.20
2023-09-06T15:34:43.408Z,78.20
2023-09-06T15:37:12.471Z,78.20
2023-09-06T15:39:44.046Z,79.10
2023-09-06T15:42:13.437Z,78.20
2023-09-06T15:44:42.681Z,78.20
2023-09-06T15:47:14.490Z,78.10
2023-09-06T15:49:44.410Z,78.30
2023-09-06T15:52:13.649Z,78.30
2023-09-06T15:54:42.891Z,78.40
2023-09-06T15:57:12.676Z,78.50
2023-09-06T15:59:41.713Z,78.60
2023-09-06T16:02:10.760Z,78.60
2023-09-06T16:04:41.412Z,78.70
2023-09-06T16:07:10.540Z,78.80
2023-09-06T16:09:39.555Z,78.90
2023-09-06T16:12:09.136Z,79.00
2023-09-06T16:14:38.269Z,79.00
2023-09-06T16:17:07.429Z,79.10
2023-09-06T16:19:36.472Z,79.00
2023-09-06T16:22:06.974Z,79.10
2023-09-06T16:24:36.831Z,79.10
2023-09-06T16:27:06.713Z,79.10
2023-09-06T16:29:35.794Z,79.20
2023-09-06T16:32:06.527Z,79.20
2023-09-06T16:34:35.585Z,79.30
2023-09-06T16:37:06.256Z,79.40
2023-09-06T16:39:35.633Z,79.40
2023-09-06T16:42:05.143Z,79.50
2023-09-06T16:44:34.757Z,79.60
2023-09-06T16:47:06.149Z,79.60
2023-09-06T16:49:35.294Z,79.60
2023-09-06T16:52:08.968Z,79.60
2023-09-06T16:54:39.546Z,79.50
2023-09-06T16:57:09.057Z,79.50
2023-09-06T16:59:38.128Z,79.50
2023-09-06T17:02:08.542Z,79.40
2023-09-06T17:04:37.762Z,79.40
2023-09-06T17:07:06.823Z,79.40
2023-09-06T17:09:36.887Z,79.40
2023-09-06T17:12:13.455Z,79.40
2023-09-06T17:17:31.281Z,79.50
2023-09-06T17:20:00.405Z,79.40
2023-09-06T17:22:29.418Z,80.30
2023-09-06T17:25:05.266Z,79.40
2023-09-06T17:27:36.368Z,79.40
2023-09-06T17:30:22.067Z,79.40
2023-09-06T17:33:14.348Z,79.40
2023-09-06T17:35:44.993Z,79.40
2023-09-06T17:38:15.064Z,79.40
2023-09-06T17:40:48.710Z,79.40
2023-09-06T17:43:19.539Z,79.30
2023-09-06T17:46:11.467Z,79.40
2023-09-06T17:48:41.196Z,79.40
2023-09-06T17:51:10.766Z,79.30
2023-09-06T17:53:44.281Z,79.40
2023-09-06T17:56:17.840Z,79.50
2023-09-06T17:58:50.920Z,79.50
2023-09-06T18:01:20.528Z,79.60
2023-09-06T18:03:52.899Z,79.50
2023-09-06T18:06:26.042Z,79.70
2023-09-06T18:08:58.180Z,79.80
2023-09-06T18:11:27.461Z,79.70
2023-09-06T18:13:57.939Z,79.80
2023-09-06T18:16:27.046Z,79.80
2023-09-06T18:18:56.202Z,79.80
2023-09-06T18:21:27.100Z,79.90
2023-09-06T18:24:02.748Z,80.00
2023-09-06T18:26:31.759Z,80.00
2023-09-06T18:29:02.122Z,79.90
2023-09-06T18:31:31.342Z,80.00
2023-09-06T18:34:00.541Z,80.00
2023-09-06T18:36:29.606Z,80.00
2023-09-06T18:38:58.683Z,80.00
2023-09-06T18:41:27.723Z,80.00
2023-09-06T18:43:57.118Z,80.10
2023-09-06T18:46:27.692Z,80.10
2023-09-06T18:48:57.036Z,80.10
2023-09-06T18:51:26.548Z,80.20
2023-09-06T18:53:55.567Z,80.20
2023-09-06T18:56:24.676Z,80.20
2023-09-06T18:58:53.701Z,80.20
2023-09-06T19:01:22.863Z,80.20
2023-09-06T19:03:53.573Z,80.20
2023-09-06T19:06:22.700Z,80.20
2023-09-06T19:08:51.731Z,80.20
2023-09-06T19:11:20.718Z,80.20
2023-09-06T19:13:49.773Z,80.10
2023-09-06T19:16:21.326Z,80.00
2023-09-06T19:18:50.634Z,80.00
2023-09-06T19:21:21.120Z,80.10
2023-09-06T19:23:51.247Z,80.10
2023-09-06T19:26:20.766Z,80.20
2023-09-06T19:28:49.839Z,80.20
2023-09-06T19:31:20.552Z,80.20
2023-09-06T19:33:49.793Z,80.20
2023-09-06T19:36:22.767Z,80.30
2023-09-06T19:38:53.787Z,80.30
2023-09-06T19:41:22.904Z,80.30
2023-09-06T19:43:51.939Z,80.20
2023-09-06T19:46:21.090Z,80.20
2023-09-06T19:49:05.035Z,80.20
2023-09-06T19:51:37.003Z,80.20
2023-09-06T19:54:06.310Z,80.20
2023-09-06T19:56:35.399Z,80.10
2023-09-06T19:59:07.522Z,80.00
2023-09-06T20:01:37.647Z,80.20
2023-09-06T20:04:07.446Z,80.20
2023-09-06T20:06:38.053Z,80.30
2023-09-06T20:09:07.368Z,80.30
2023-09-06T20:11:37.975Z,80.30
2023-09-06T20:14:09.531Z,80.40
2023-09-06T20:16:38.866Z,80.50
2023-09-06T20:19:08.024Z,80.70
2023-09-06T20:21:38.482Z,81.70
2023-09-06T20:24:08.429Z,81.00
2023-09-06T20:26:38.275Z,81.00
2023-09-06T20:29:10.598Z,81.00
2023-09-06T20:31:39.903Z,81.10
2023-09-06T20:34:08.983Z,81.00
2023-09-06T20:36:39.421Z,81.00
2023-09-06T20:39:10.893Z,81.00
2023-09-06T20:41:42.298Z,80.90
2023-09-06T20:44:12.033Z,80.90
2023-09-06T20:46:42.385Z,80.90
2023-09-06T20:49:16.884Z,80.80
2023-09-06T20:51:48.557Z,80.90
2023-09-06T20:54:17.666Z,80.90
2023-09-06T20:56:46.721Z,81.00
2023-09-06T20:59:15.791Z,81.00
2023-09-06T21:01:44.990Z,81.00
2023-09-06T21:04:14.429Z,81.10
2023-09-06T21:06:43.581Z,81.20
2023-09-06T21:09:13.989Z,81.30
2023-09-06T21:11:42.994Z,81.30
2023-09-06T21:14:11.990Z,81.30
2023-09-06T21:16:41.043Z,81.40
2023-09-06T21:19:11.046Z,81.50
2023-09-06T21:21:40.243Z,81.50
2023-09-06T21:24:10.730Z,81.50
2023-09-06T21:26:41.357Z,81.60
2023-09-06T21:29:25.630Z,82.50
2023-09-06T21:31:57.534Z,81.80
2023-09-06T21:34:26.828Z,81.90
2023-09-06T21:36:56.081Z,81.90
2023-09-06T21:39:26.038Z,82.00
2023-09-06T21:41:56.703Z,82.00
2023-09-06T21:44:28.887Z,82.00
2023-09-06T21:46:57.949Z,82.10
2023-09-06T21:49:29.611Z,82.10
2023-09-06T21:51:58.743Z,82.10
2023-09-06T21:54:27.783Z,82.00
2023-09-06T21:56:58.432Z,82.00
2023-09-06T21:59:27.484Z,82.00
2023-09-06T22:01:56.447Z,82.10
2023-09-06T22:04:43.908Z,82.10
2023-09-06T22:07:31.767Z,82.20
2023-09-06T22:10:20.141Z,82.30
2023-09-06T22:13:09.089Z,83.30
2023-09-06T22:15:38.245Z,82.30
2023-09-06T22:18:07.775Z,82.20
2023-09-06T22:20:39.650Z,82.20
2023-09-06T22:23:08.864Z,82.20
2023-09-06T22:25:37.861Z,82.20
2023-09-06T22:28:10.207Z,82.20
2023-09-06T22:30:42.730Z,82.20
2023-09-06T22:33:12.062Z,82.40
2023-09-06T22:35:41.184Z,82.40
2023-09-06T22:38:10.552Z,82.40
2023-09-06T22:40:39.615Z,82.50
2023-09-06T22:43:10.022Z,82.50
2023-09-06T22:45:39.455Z,82.50
2023-09-06T22:48:09.718Z,82.50
2023-09-06T22:50:39.965Z,82.50
2023-09-06T22:53:09.383Z,82.50
2023-09-06T22:55:38.478Z,82.50
2023-09-06T22:58:07.657Z,82.40
2023-09-06T23:00:38.154Z,82.40
2023-09-06T23:03:09.957Z,82.40
2023-09-06T23:05:39.095Z,82.40
2023-09-06T23:08:08.303Z,82.40
2023-09-06T23:10:39.958Z,82.40
2023-09-06T23:13:09.047Z,82.50
2023-09-06T23:15:41.173Z,82.60
2023-09-06T23:18:11.632Z,82.60
2023-09-06T23:20:43.478Z,82.60
2023-09-06T23:23:13.291Z,82.80
2023-09-06T23:25:44.789Z,82.80
2023-09-06T23:28:17.705Z,82.90
2023-09-06T23:30:55.140Z,83.00
2023-09-06T23:33:34.549Z,83.20
2023-09-06T23:36:04.841Z,83.10
2023-09-06T23:38:34.741Z,83.10
2023-09-06T23:41:04.930Z,83.20
2023-09-06T23:43:34.850Z,83.20
2023-09-06T23:46:05.588Z,83.20
2023-09-06T23:48:34.748Z,83.20
2023-09-06T23:51:04.068Z,83.20
2023-09-06T23:53:33.128Z,83.20
2023-09-06T23:56:05.585Z,83.30
2023-09-06T23:58:35.011Z,83.30
